createdAt,value
2018-11-03T00:00:37.551Z,52.70
2018-11-03T00:03:08.917Z,53.53
2018-11-03T00:05:40.286Z,51.23
2018-11-03T00:08:11.531Z,51.27
2018-11-03T00:10:42.523Z,49.63
2018-11-03T00:13:14.047Z,51.37
2018-11-03T00:15:45.677Z,46.90
2018-11-03T00:18:16.917Z,44.03
2018-11-03T00:20:48.084Z,47.90
2018-11-03T00:23:19.704Z,46.00
2018-11-03T00:28:25.239Z,52.60
2018-11-03T00:30:57.006Z,48.60
2018-11-03T00:33:28.965Z,52.80
2018-11-03T00:36:00.916Z,51.27
2018-11-03T00:38:33.496Z,47.30
2018-11-03T00:41:05.470Z,47.37
2018-11-03T00:43:37.928Z,53.33
2018-11-03T00:46:10.344Z,48.47
2018-11-03T00:48:43.427Z,50.27
2018-11-03T00:51:15.397Z,46.73
2018-11-03T00:53:47.330Z,48.03
2018-11-03T00:56:19.370Z,49.67
2018-11-03T00:58:51.329Z,50.30
2018-11-03T01:01:24.041Z,50.60
2018-11-03T01:03:56.832Z,50.27
2018-11-03T01:06:28.701Z,50.63
2018-11-03T01:09:00.784Z,46.60
2018-11-03T01:11:33.025Z,46.37
2018-11-03T01:14:05.307Z,45.60
2018-11-03T01:16:38.658Z,47.47
2018-11-03T01:19:11.457Z,48.90
2018-11-03T01:21:43.745Z,49.17
2018-11-03T01:24:16.388Z,44.77
2018-11-03T01:26:48.324Z,47.77
2018-11-03T01:29:20.142Z,44.67
2018-11-03T01:31:52.013Z,38.97
2018-11-03T01:34:24.045Z,45.33
2018-11-03T01:36:55.777Z,43.83
2018-11-03T01:39:28.441Z,43.10
2018-11-03T01:42:01.352Z,55.63
2018-11-03T01:44:33.646Z,45.80
2018-11-03T01:47:05.949Z,50.37
2018-11-03T01:49:37.882Z,44.97
2018-11-03T01:52:09.668Z,50.60
2018-11-03T01:54:41.958Z,46.47
2018-11-03T01:57:14.006Z,43.83
2018-11-03T01:59:45.886Z,43.37
2018-11-03T02:02:17.453Z,45.40
2018-11-03T02:04:50.192Z,47.27
2018-11-03T02:07:22.270Z,40.90
2018-11-03T02:09:55.145Z,47.33
2018-11-03T02:12:27.363Z,45.87
2018-11-03T02:14:59.138Z,44.90
2018-11-03T02:17:33.318Z,44.37
2018-11-03T02:20:05.836Z,43.23
2018-11-03T02:22:38.067Z,50.27
2018-11-03T02:25:10.506Z,43.67
2018-11-03T02:27:42.517Z,49.27
2018-11-03T02:30:14.446Z,46.43
2018-11-03T02:32:46.193Z,46.73
2018-11-03T02:35:19.095Z,46.37
2018-11-03T02:37:53.908Z,44.03
2018-11-03T02:40:26.586Z,50.10
2018-11-03T02:42:59.334Z,47.13
2018-11-03T02:45:31.129Z,43.83
2018-11-03T02:48:03.153Z,48.63
2018-11-03T02:50:35.230Z,43.10
2018-11-03T02:53:07.328Z,46.40
2018-11-03T02:55:39.231Z,49.57
2018-11-03T02:58:11.183Z,54.30
2018-11-03T03:00:43.350Z,53.03
2018-11-03T03:03:15.012Z,55.47
2018-11-03T03:05:47.620Z,48.00
2018-11-03T03:08:19.300Z,47.33
2018-11-03T03:10:51.134Z,47.67
2018-11-03T03:13:22.745Z,49.37
2018-11-03T03:15:55.832Z,50.77
2018-11-03T03:18:27.467Z,51.67
2018-11-03T03:20:59.738Z,55.63
2018-11-03T03:23:31.625Z,55.00
2018-11-03T03:26:03.844Z,52.87
2018-11-03T03:28:35.835Z,52.73
2018-11-03T03:31:07.942Z,56.37
2018-11-03T03:33:40.041Z,52.90
2018-11-03T03:36:12.063Z,54.77
2018-11-03T03:38:44.285Z,57.80
2018-11-03T03:41:17.240Z,47.50
2018-11-03T03:43:49.141Z,48.43
2018-11-03T03:46:20.956Z,54.03
2018-11-03T03:48:52.820Z,52.37
2018-11-03T03:51:24.958Z,48.37
2018-11-03T03:53:57.888Z,48.30
2018-11-03T03:56:30.545Z,54.23
2018-11-03T03:59:03.729Z,49.37
2018-11-03T04:01:35.699Z,55.07
2018-11-03T04:04:09.152Z,52.47
2018-11-03T04:06:41.978Z,50.83
2018-11-03T04:09:14.077Z,52.10
2018-11-03T04:11:45.887Z,49.97
2018-11-03T04:14:17.859Z,50.20
2018-11-03T04:16:50.496Z,57.67
2018-11-03T04:19:23.253Z,57.60
2018-11-03T04:21:55.130Z,59.53
2018-11-03T04:24:28.242Z,57.93
2018-11-03T04:27:00.304Z,64.93
2018-11-03T04:29:32.237Z,62.17
2018-11-03T04:32:04.531Z,57.93
2018-11-03T04:34:36.501Z,62.87
2018-11-03T04:37:08.375Z,59.20
2018-11-03T04:39:40.792Z,52.63
2018-11-03T04:42:13.024Z,52.93
2018-11-03T04:44:45.127Z,51.37
2018-11-03T04:47:17.230Z,53.70
2018-11-03T04:49:49.621Z,49.00
2018-11-03T04:52:21.735Z,53.03
2018-11-03T04:54:53.654Z,57.63
2018-11-03T04:57:25.560Z,53.53
2018-11-03T04:59:57.739Z,56.07
2018-11-03T05:02:29.980Z,56.13
2018-11-03T05:05:01.997Z,54.93
2018-11-03T05:07:34.722Z,56.97
2018-11-03T05:10:08.154Z,59.13
2018-11-03T05:12:39.889Z,55.30
2018-11-03T05:15:11.702Z,52.13
2018-11-03T05:17:43.890Z,58.73
2018-11-03T05:20:15.490Z,51.40
2018-11-03T05:22:47.643Z,58.87
2018-11-03T05:25:19.994Z,57.80
2018-11-03T05:27:52.058Z,58.77
2018-11-03T05:30:24.379Z,60.03
2018-11-03T05:32:56.496Z,59.40
2018-11-03T05:35:28.221Z,59.77
2018-11-03T05:38:00.219Z,58.83
2018-11-03T05:40:32.325Z,61.07
2018-11-03T05:43:04.163Z,61.00
2018-11-03T05:45:37.084Z,52.90
2018-11-03T05:48:09.165Z,58.30
2018-11-03T05:50:41.287Z,57.23
2018-11-03T05:53:13.208Z,61.33
2018-11-03T05:55:45.995Z,64.17
2018-11-03T05:58:18.002Z,75.57
2018-11-03T06:00:50.084Z,75.97
2018-11-03T06:03:24.385Z,70.97
2018-11-03T06:05:57.032Z,67.73
2018-11-03T06:08:28.904Z,58.47
2018-11-03T06:11:01.690Z,68.47
2018-11-03T06:13:33.710Z,70.00
2018-11-03T06:16:05.696Z,66.20
2018-11-03T06:18:37.472Z,59.47
2018-11-03T06:21:09.158Z,66.73
2018-11-03T06:23:42.113Z,65.70
2018-11-03T06:26:14.277Z,63.00
2018-11-03T06:31:47.862Z,60.43
2018-11-03T06:34:19.792Z,59.53
2018-11-03T06:36:52.148Z,68.93
2018-11-03T06:39:24.201Z,64.03
2018-11-03T06:41:56.610Z,53.97
2018-11-03T06:44:29.147Z,57.60
2018-11-03T06:47:01.356Z,59.17
2018-11-03T06:49:34.396Z,58.70
2018-11-03T06:52:06.502Z,60.80
2018-11-03T06:54:38.482Z,62.77
2018-11-03T06:57:11.330Z,59.83
2018-11-03T06:59:43.409Z,56.50
2018-11-03T07:02:15.545Z,65.73
2018-11-03T07:04:47.500Z,67.47
2018-11-03T07:07:19.581Z,65.93
2018-11-03T07:09:52.066Z,63.40
2018-11-03T07:12:24.158Z,59.17
2018-11-03T07:14:56.395Z,59.20
2018-11-03T07:17:28.656Z,59.27
2018-11-03T07:20:00.769Z,60.80
2018-11-03T07:22:33.081Z,60.30
2018-11-03T07:25:05.517Z,58.90
2018-11-03T07:27:37.585Z,62.27
2018-11-03T07:30:12.588Z,61.63
2018-11-03T07:32:44.863Z,67.27
2018-11-03T07:35:17.041Z,58.53
2018-11-03T07:37:49.653Z,57.07
2018-11-03T07:40:21.961Z,58.10
2018-11-03T07:42:54.219Z,59.77
2018-11-03T07:45:27.247Z,56.03
2018-11-03T07:48:00.145Z,58.83
2018-11-03T07:50:32.694Z,58.27
2018-11-03T07:53:04.772Z,56.27
2018-11-03T07:55:36.651Z,56.57
2018-11-03T08:01:32.562Z,59.83
2018-11-03T08:04:05.021Z,58.67
2018-11-03T08:06:37.026Z,57.13
2018-11-03T08:12:17.240Z,62.73
2018-11-03T08:14:49.513Z,55.47
2018-11-03T08:17:21.997Z,52.70
2018-11-03T08:19:54.357Z,52.97
2018-11-03T08:22:26.581Z,56.00
2018-11-03T08:24:58.550Z,51.27
2018-11-03T08:27:31.468Z,54.10
2018-11-03T08:30:03.837Z,47.90
2018-11-03T08:33:39.023Z,48.27
2018-11-03T08:36:12.907Z,52.63
2018-11-03T08:38:45.458Z,48.83
2018-11-03T08:41:17.554Z,46.90
2018-11-03T08:43:49.871Z,47.43
2018-11-03T08:46:23.310Z,49.67
2018-11-03T08:48:55.484Z,50.63
2018-11-03T08:51:27.671Z,45.97
2018-11-03T08:53:59.880Z,52.13
2018-11-03T08:56:32.288Z,45.53
2018-11-03T08:59:05.557Z,49.63
2018-11-03T09:01:38.495Z,46.23
2018-11-03T09:04:10.871Z,48.40
2018-11-03T09:06:42.721Z,48.80
2018-11-03T09:09:14.834Z,46.90
2018-11-03T09:11:47.183Z,45.77
2018-11-03T09:14:19.559Z,47.10
2018-11-03T09:16:51.853Z,43.70
2018-11-03T09:19:24.084Z,42.53
2018-11-03T09:21:56.353Z,44.03
2018-11-03T09:24:28.533Z,38.30
2018-11-03T09:27:00.833Z,41.10
2018-11-03T09:29:32.821Z,37.10
2018-11-03T09:32:04.859Z,38.47
2018-11-03T09:34:37.048Z,42.80
2018-11-03T09:37:09.314Z,35.57
2018-11-03T09:39:41.400Z,36.33
2018-11-03T09:42:13.551Z,33.70
2018-11-03T09:44:46.298Z,35.47
2018-11-03T09:47:18.937Z,33.83
2018-11-03T09:49:51.201Z,28.93
2018-11-03T09:52:23.072Z,32.47
2018-11-03T09:54:55.632Z,30.93
2018-11-03T09:57:28.330Z,28.43
2018-11-03T10:00:00.303Z,35.50
2018-11-03T10:02:32.579Z,31.50
2018-11-03T10:05:04.811Z,27.97
2018-11-03T10:07:38.488Z,26.20
2018-11-03T10:10:16.439Z,26.63
2018-11-03T10:12:48.732Z,23.23
2018-11-03T10:15:20.905Z,28.43
2018-11-03T10:17:54.045Z,28.53
2018-11-03T10:20:26.250Z,24.70
2018-11-03T10:22:58.384Z,26.87
2018-11-03T10:25:30.514Z,25.80
2018-11-03T10:28:02.108Z,24.93
2018-11-03T10:30:34.779Z,26.53
2018-11-03T10:33:07.991Z,29.23
2018-11-03T10:35:40.766Z,25.80
2018-11-03T10:38:12.668Z,30.73
2018-11-03T10:40:45.233Z,30.67
2018-11-03T10:43:17.434Z,26.40
2018-11-03T10:45:49.620Z,27.13
2018-11-03T10:48:21.786Z,24.70
2018-11-03T10:50:54.390Z,22.77
2018-11-03T10:53:26.761Z,26.43
2018-11-03T10:55:59.385Z,23.60
2018-11-03T10:58:31.570Z,24.27
2018-11-03T11:01:08.533Z,22.80
2018-11-03T11:03:45.949Z,23.53
2018-11-03T11:06:22.638Z,22.53
2018-11-03T11:08:59.649Z,20.17
2018-11-03T11:11:36.944Z,22.07
2018-11-03T11:14:09.272Z,21.80
2018-11-03T11:16:41.462Z,18.37
2018-11-03T11:19:14.552Z,19.47
2018-11-03T11:21:46.614Z,22.43
2018-11-03T11:24:18.822Z,19.67
2018-11-03T11:26:50.894Z,19.37
2018-11-03T11:29:23.746Z,18.47
2018-11-03T11:31:56.888Z,21.03
2018-11-03T11:34:29.279Z,16.83
2018-11-03T11:37:01.527Z,20.80
2018-11-03T11:39:33.964Z,18.33
2018-11-03T11:42:06.073Z,17.07
2018-11-03T11:44:38.006Z,24.87
2018-11-03T11:47:10.149Z,16.17
2018-11-03T11:49:42.526Z,18.40
2018-11-03T11:56:17.537Z,19.00
2018-11-03T11:58:50.034Z,20.37
2018-11-03T12:01:22.607Z,22.37
2018-11-03T12:03:54.916Z,16.80
2018-11-03T12:06:26.898Z,17.63
2018-11-03T12:08:59.443Z,16.03
2018-11-03T12:11:31.790Z,16.13
2018-11-03T12:14:04.061Z,15.90
2018-11-03T12:16:36.340Z,15.07
2018-11-03T12:19:09.009Z,14.73
2018-11-03T12:21:41.363Z,14.60
2018-11-03T12:24:13.677Z,17.23
2018-11-03T12:26:45.723Z,12.07
2018-11-03T12:29:17.936Z,8.20
2018-11-03T12:31:49.860Z,9.47
2018-11-03T12:34:21.826Z,7.53
2018-11-03T12:36:53.878Z,5.83
2018-11-03T12:39:26.187Z,6.40
2018-11-03T12:41:59.510Z,6.60
2018-11-03T12:44:32.460Z,7.27
2018-11-03T12:47:05.278Z,10.90
2018-11-03T12:49:37.613Z,10.17
2018-11-03T12:52:10.065Z,8.27
2018-11-03T12:54:42.252Z,6.13
2018-11-03T12:57:14.462Z,4.93
2018-11-03T12:59:46.736Z,8.43
2018-11-03T13:02:19.871Z,6.03
2018-11-03T13:04:52.610Z,6.50
2018-11-03T13:07:24.967Z,6.73
2018-11-03T13:09:57.106Z,7.13
2018-11-03T13:12:29.361Z,13.30
2018-11-03T13:15:01.488Z,9.43
2018-11-03T13:17:33.495Z,8.63
2018-11-03T13:20:06.684Z,7.00
2018-11-03T13:22:39.101Z,11.10
2018-11-03T13:25:11.837Z,10.80
2018-11-03T13:27:44.110Z,10.33
2018-11-03T13:30:16.908Z,15.50
2018-11-03T13:32:50.390Z,8.03
2018-11-03T13:35:22.709Z,10.43
2018-11-03T13:37:54.783Z,9.83
2018-11-03T13:40:27.512Z,8.13
2018-11-03T13:43:00.452Z,8.70
2018-11-03T13:45:32.398Z,10.33
2018-11-03T13:48:04.410Z,9.10
2018-11-03T13:50:36.903Z,10.10
2018-11-03T13:53:09.188Z,11.90
2018-11-03T13:55:41.657Z,14.67
2018-11-03T13:58:14.247Z,10.63
2018-11-03T14:00:46.273Z,13.63
2018-11-03T14:03:18.451Z,13.67
2018-11-03T14:05:53.529Z,10.30
2018-11-03T14:08:27.794Z,11.20
2018-11-03T14:11:01.844Z,11.23
2018-11-03T14:13:33.988Z,12.60
2018-11-03T14:16:05.719Z,15.40
2018-11-03T14:18:37.915Z,11.40
2018-11-03T14:21:10.142Z,11.30
2018-11-03T14:23:42.386Z,13.53
2018-11-03T14:26:15.647Z,12.90
2018-11-03T14:28:47.738Z,18.00
2018-11-03T14:31:19.688Z,15.73
2018-11-03T14:33:51.895Z,18.10
2018-11-03T14:36:24.518Z,16.47
2018-11-03T14:38:56.707Z,18.23
2018-11-03T14:41:28.923Z,21.40
2018-11-03T14:44:01.160Z,16.30
2018-11-03T14:46:33.404Z,12.53
2018-11-03T14:49:05.922Z,12.83
2018-11-03T14:51:38.109Z,16.93
2018-11-03T14:54:12.049Z,14.80
2018-11-03T14:56:44.337Z,20.87
2018-11-03T14:59:16.277Z,19.00
2018-11-03T15:01:49.155Z,17.20
2018-11-03T15:04:22.188Z,19.07
2018-11-03T15:06:54.239Z,17.53
2018-11-03T15:09:26.213Z,24.27
2018-11-03T15:11:58.276Z,19.07
2018-11-03T15:14:30.305Z,33.20
2018-11-03T15:17:02.645Z,16.90
2018-11-03T15:19:34.761Z,19.23
2018-11-03T15:22:07.555Z,24.50
2018-11-03T15:24:39.867Z,22.07
2018-11-03T15:27:12.366Z,22.93
2018-11-03T15:29:45.190Z,26.60
2018-11-03T15:32:18.434Z,26.77
2018-11-03T15:34:50.913Z,27.23
2018-11-03T15:37:23.186Z,32.00
2018-11-03T15:39:55.303Z,27.83
2018-11-03T15:42:27.547Z,27.57
2018-11-03T15:44:59.543Z,30.67
2018-11-03T15:47:31.727Z,29.23
2018-11-03T15:50:03.880Z,26.50
2018-11-03T15:52:36.441Z,30.13
2018-11-03T15:55:08.881Z,31.67
2018-11-03T15:57:40.857Z,28.80
2018-11-03T16:00:17.493Z,36.20
2018-11-03T16:02:50.111Z,38.00
2018-11-03T16:05:22.232Z,25.37
2018-11-03T16:07:54.799Z,29.00
2018-11-03T16:10:27.329Z,26.93
2018-11-03T16:12:59.418Z,37.27
2018-11-03T16:15:31.544Z,33.70
2018-11-03T16:18:03.704Z,30.67
2018-11-03T16:20:35.700Z,28.30
2018-11-03T16:23:08.025Z,29.97
2018-11-03T16:25:40.077Z,31.27
2018-11-03T16:28:12.527Z,30.87
2018-11-03T16:30:44.798Z,26.20
2018-11-03T16:33:17.207Z,32.67
2018-11-03T16:35:49.624Z,25.73
2018-11-03T16:38:21.799Z,33.50
2018-11-03T16:40:55.299Z,30.67
2018-11-03T16:43:27.899Z,32.20
2018-11-03T16:46:00.550Z,43.67
2018-11-03T16:48:33.712Z,37.53
2018-11-03T16:51:06.808Z,35.47
2018-11-03T16:53:39.192Z,34.70
2018-11-03T16:56:11.620Z,45.40
2018-11-03T16:58:44.380Z,41.30
2018-11-03T17:01:16.469Z,43.73
2018-11-03T17:03:48.867Z,40.10
2018-11-03T17:06:21.272Z,35.30
2018-11-03T17:08:54.167Z,40.37
2018-11-03T17:11:26.501Z,37.57
2018-11-03T17:13:59.671Z,43.37
2018-11-03T17:16:32.296Z,45.93
2018-11-03T17:19:04.724Z,44.03
2018-11-03T17:21:37.060Z,49.37
2018-11-03T17:24:11.417Z,45.23
2018-11-03T17:26:43.627Z,47.53
2018-11-03T17:29:16.472Z,50.10
2018-11-03T17:31:48.800Z,48.00
2018-11-03T17:34:20.902Z,54.10
2018-11-03T17:36:53.480Z,53.10
2018-11-03T17:39:27.773Z,49.00
2018-11-03T17:41:59.625Z,50.60
2018-11-03T17:44:32.112Z,54.20
2018-11-03T17:47:04.321Z,58.40
2018-11-03T17:49:38.073Z,57.37
2018-11-03T17:52:10.225Z,62.60
2018-11-03T17:54:42.776Z,62.80
2018-11-03T17:57:19.426Z,64.37
2018-11-03T17:59:51.845Z,62.73
2018-11-03T18:02:25.050Z,69.60
2018-11-03T18:04:57.661Z,71.43
2018-11-03T18:07:31.312Z,64.13
2018-11-03T18:10:03.719Z,65.73
2018-11-03T18:12:36.175Z,69.80
2018-11-03T18:15:10.251Z,83.70
2018-11-03T18:17:43.161Z,72.57
2018-11-03T18:20:15.951Z,72.73
2018-11-03T18:22:48.347Z,77.33
2018-11-03T18:25:20.786Z,78.63
2018-11-03T18:27:53.775Z,76.70
2018-11-03T18:30:25.990Z,78.47
2018-11-03T18:32:58.224Z,80.10
2018-11-03T18:35:30.571Z,75.77
2018-11-03T18:38:03.110Z,80.03
2018-11-03T18:40:35.534Z,79.70
2018-11-03T18:43:08.094Z,90.63
2018-11-03T18:45:41.225Z,78.53
2018-11-03T18:48:13.448Z,78.50
2018-11-03T18:50:46.538Z,84.57
2018-11-03T18:53:19.880Z,78.80
2018-11-03T18:55:52.930Z,88.13
2018-11-03T18:58:26.590Z,75.10
2018-11-03T19:01:00.522Z,76.10
2018-11-03T19:03:32.662Z,79.83
2018-11-03T19:06:05.696Z,70.23
2018-11-03T19:08:38.158Z,76.23
2018-11-03T19:11:12.625Z,78.83
2018-11-03T19:13:44.848Z,82.03
2018-11-03T19:16:17.778Z,68.83
2018-11-03T19:18:50.120Z,73.60
2018-11-03T19:21:22.548Z,70.37
2018-11-03T19:23:54.882Z,75.63
2018-11-03T19:26:27.087Z,70.63
2018-11-03T19:28:59.968Z,75.97
2018-11-03T19:31:32.212Z,69.83
2018-11-03T19:34:04.444Z,76.00
2018-11-03T19:36:37.126Z,74.33
2018-11-03T19:39:10.697Z,70.57
2018-11-03T19:41:43.020Z,91.43
2018-11-03T19:44:16.299Z,75.90
2018-11-03T19:46:48.672Z,79.10
2018-11-03T19:49:21.555Z,81.77
2018-11-03T19:51:53.443Z,70.67
2018-11-03T19:54:25.631Z,75.63
2018-11-03T19:56:59.810Z,75.00
2018-11-03T19:59:31.991Z,71.07
2018-11-03T20:02:04.186Z,74.80
2018-11-03T20:04:36.058Z,76.00
2018-11-03T20:07:08.336Z,79.13
2018-11-03T20:09:40.929Z,80.30
2018-11-03T20:12:13.199Z,83.23
2018-11-03T20:14:45.449Z,79.20
2018-11-03T20:17:18.899Z,80.13
2018-11-03T20:19:51.262Z,81.03
2018-11-03T20:22:23.216Z,75.63
2018-11-03T20:24:56.341Z,79.23
2018-11-03T20:27:29.230Z,77.57
2018-11-03T20:30:01.700Z,78.90
2018-11-03T20:32:33.794Z,101.07
2018-11-03T20:35:06.395Z,82.33
2018-11-03T20:37:39.045Z,79.83
2018-11-03T20:40:12.956Z,74.57
2018-11-03T20:42:45.270Z,76.07
2018-11-03T20:45:17.292Z,74.30
2018-11-03T20:47:49.980Z,74.57
2018-11-03T20:50:22.508Z,73.60
2018-11-03T20:52:55.382Z,74.77
2018-11-03T20:55:27.828Z,64.60
2018-11-03T20:57:59.910Z,68.93
2018-11-03T21:00:32.191Z,59.57
2018-11-03T21:03:04.815Z,71.63
2018-11-03T21:05:36.968Z,72.37
2018-11-03T21:08:09.466Z,70.90
2018-11-03T21:10:41.531Z,69.83
2018-11-03T21:13:13.533Z,68.83
2018-11-03T21:15:45.770Z,62.57
2018-11-03T21:18:17.811Z,66.13
2018-11-03T21:20:50.017Z,66.40
2018-11-03T21:23:22.626Z,63.00
2018-11-03T21:25:55.185Z,63.63
2018-11-03T21:28:27.412Z,67.03
2018-11-03T21:30:59.546Z,63.13
2018-11-03T21:33:31.516Z,72.27
2018-11-03T21:36:03.780Z,65.27
2018-11-03T21:38:36.026Z,56.77
2018-11-03T21:41:08.710Z,68.73
2018-11-03T21:43:42.066Z,66.37
2018-11-03T21:46:14.467Z,62.40
2018-11-03T21:48:46.591Z,66.13
2018-11-03T21:51:18.834Z,68.27
2018-11-03T21:53:50.756Z,65.20
2018-11-03T21:56:22.797Z,71.67
2018-11-03T21:58:55.045Z,64.57
2018-11-03T22:01:28.298Z,71.87
2018-11-03T22:04:00.509Z,73.87
2018-11-03T22:06:32.777Z,72.47
2018-11-03T22:09:07.860Z,67.47
2018-11-03T22:11:40.252Z,70.17
2018-11-03T22:14:12.177Z,76.87
2018-11-03T22:16:44.562Z,62.33
2018-11-03T22:19:17.414Z,65.87
2018-11-03T22:21:49.654Z,70.13
2018-11-03T22:24:21.994Z,70.10
2018-11-03T22:26:54.400Z,68.17
2018-11-03T22:29:26.532Z,64.30
2018-11-03T22:31:59.441Z,65.53
2018-11-03T22:34:31.531Z,59.13
2018-11-03T22:37:03.831Z,59.97
2018-11-03T22:39:36.157Z,62.97
2018-11-03T22:42:08.068Z,65.87
2018-11-03T22:44:40.186Z,67.37
2018-11-03T22:47:12.765Z,66.73
2018-11-03T22:49:44.758Z,62.77
2018-11-03T22:52:16.732Z,69.03
2018-11-03T22:54:48.770Z,69.50
2018-11-03T22:57:20.799Z,72.40
2018-11-03T22:59:52.725Z,76.03
2018-11-03T23:02:25.597Z,77.03
2018-11-03T23:04:58.040Z,69.87
2018-11-03T23:07:30.077Z,80.87
2018-11-03T23:10:02.017Z,74.53
2018-11-03T23:12:33.989Z,64.33
2018-11-03T23:15:06.485Z,69.30
2018-11-03T23:17:38.532Z,69.67
2018-11-03T23:20:13.578Z,67.57
2018-11-03T23:22:45.662Z,64.80
2018-11-03T23:25:17.503Z,60.33
2018-11-03T23:27:49.681Z,60.43
2018-11-03T23:30:21.652Z,60.37
2018-11-03T23:32:53.485Z,57.13
2018-11-03T23:35:25.368Z,53.67
2018-11-03T23:37:57.568Z,62.43
2018-11-03T23:40:29.658Z,62.83
2018-11-03T23:43:01.389Z,61.43
2018-11-03T23:45:33.357Z,61.50
2018-11-03T23:48:05.345Z,63.63
2018-11-03T23:50:37.134Z,62.00
2018-11-03T23:53:09.418Z,59.20
2018-11-03T23:55:41.508Z,55.87
2018-11-03T23:58:13.310Z,55.60
